sensor_id;sensor_type;location;lat;lon;timestamp;P1;durP1;ratioP1;P2;durP2;ratioP2
66145;SDS011;52948;60.040;30.320;2024-03-02T00:01:24;4.32;;;2.97;;
66145;SDS011;52948;60.040;30.320;2024-03-02T00:06:26;3.63;;;2.63;;
66145;SDS011;52948;60.040;30.320;2024-03-02T00:11:28;4.15;;;2.47;;
66145;SDS011;52948;60.040;30.320;2024-03-02T00:16:31;2.88;;;2.08;;
66145;SDS011;52948;60.040;30.320;2024-03-02T00:21:34;2.40;;;2.05;;
66145;SDS011;52948;60.040;30.320;2024-03-02T00:26:37;3.92;;;2.05;;
66145;SDS011;52948;60.040;30.320;2024-03-02T00:31:39;2.85;;;2.00;;
66145;SDS011;52948;60.040;30.320;2024-03-02T00:36:41;2.58;;;2.00;;
66145;SDS011;52948;60.040;30.320;2024-03-02T00:41:44;2.85;;;2.25;;
66145;SDS011;52948;60.040;30.320;2024-03-02T00:46:46;2.58;;;2.13;;
66145;SDS011;52948;60.040;30.320;2024-03-02T00:51:50;3.53;;;2.50;;
66145;SDS011;52948;60.040;30.320;2024-03-02T00:56:53;2.85;;;1.90;;
66145;SDS011;52948;60.040;30.320;2024-03-02T01:01:57;3.45;;;1.95;;
66145;SDS011;52948;60.040;30.320;2024-03-02T01:06:59;3.50;;;1.80;;
66145;SDS011;52948;60.040;30.320;2024-03-02T01:12:01;2.60;;;1.90;;
66145;SDS011;52948;60.040;30.320;2024-03-02T01:17:04;2.75;;;1.85;;
66145;SDS011;52948;60.040;30.320;2024-03-02T01:22:06;3.75;;;2.00;;
66145;SDS011;52948;60.040;30.320;2024-03-02T01:27:08;2.45;;;2.00;;
66145;SDS011;52948;60.040;30.320;2024-03-02T01:32:13;3.47;;;2.20;;
66145;SDS011;52948;60.040;30.320;2024-03-02T01:37:15;4.78;;;2.42;;
66145;SDS011;52948;60.040;30.320;2024-03-02T01:42:18;3.92;;;2.70;;
66145;SDS011;52948;60.040;30.320;2024-03-02T01:47:20;5.07;;;3.10;;
66145;SDS011;52948;60.040;30.320;2024-03-02T01:52:22;6.20;;;3.50;;
66145;SDS011;52948;60.040;30.320;2024-03-02T01:57:24;5.55;;;3.40;;
66145;SDS011;52948;60.040;30.320;2024-03-02T02:02:27;6.93;;;3.33;;
66145;SDS011;52948;60.040;30.320;2024-03-02T02:07:29;6.75;;;3.90;;
66145;SDS011;52948;60.040;30.320;2024-03-02T02:12:32;6.72;;;3.72;;
66145;SDS011;52948;60.040;30.320;2024-03-02T02:17:34;5.85;;;3.28;;
66145;SDS011;52948;60.040;30.320;2024-03-02T02:22:36;7.82;;;3.20;;
66145;SDS011;52948;60.040;30.320;2024-03-02T02:27:39;8.38;;;4.03;;
66145;SDS011;52948;60.040;30.320;2024-03-02T02:32:41;6.90;;;3.20;;
66145;SDS011;52948;60.040;30.320;2024-03-02T02:37:44;5.95;;;3.33;;
66145;SDS011;52948;60.040;30.320;2024-03-02T02:42:47;5.88;;;3.20;;
66145;SDS011;52948;60.040;30.320;2024-03-02T02:47:51;6.47;;;3.85;;
66145;SDS011;52948;60.040;30.320;2024-03-02T02:52:54;6.20;;;3.40;;
66145;SDS011;52948;60.040;30.320;2024-03-02T02:57:56;6.45;;;3.42;;
66145;SDS011;52948;60.040;30.320;2024-03-02T03:02:58;5.72;;;3.40;;
66145;SDS011;52948;60.040;30.320;2024-03-02T03:08:01;5.78;;;3.70;;
66145;SDS011;52948;60.040;30.320;2024-03-02T03:13:05;8.07;;;3.22;;
66145;SDS011;52948;60.040;30.320;2024-03-02T03:18:10;4.88;;;3.33;;
66145;SDS011;52948;60.040;30.320;2024-03-02T03:23:12;7.63;;;4.05;;
66145;SDS011;52948;60.040;30.320;2024-03-02T03:28:18;5.85;;;3.25;;
66145;SDS011;52948;60.040;30.320;2024-03-02T03:33:21;6.57;;;3.50;;
66145;SDS011;52948;60.040;30.320;2024-03-02T03:38:23;5.63;;;3.50;;
66145;SDS011;52948;60.040;30.320;2024-03-02T03:43:29;10.00;;;4.30;;
66145;SDS011;52948;60.040;30.320;2024-03-02T03:48:31;5.70;;;3.85;;
66145;SDS011;52948;60.040;30.320;2024-03-02T03:53:34;4.70;;;3.42;;
66145;SDS011;52948;60.040;30.320;2024-03-02T03:58:41;6.95;;;3.55;;
66145;SDS011;52948;60.040;30.320;2024-03-02T04:03:43;6.82;;;3.60;;
66145;SDS011;52948;60.040;30.320;2024-03-02T04:08:46;6.93;;;3.33;;
66145;SDS011;52948;60.040;30.320;2024-03-02T04:13:48;3.92;;;3.20;;
66145;SDS011;52948;60.040;30.320;2024-03-02T04:18:50;6.72;;;4.05;;
66145;SDS011;52948;60.040;30.320;2024-03-02T04:23:52;4.70;;;3.20;;
66145;SDS011;52948;60.040;30.320;2024-03-02T04:28:59;4.97;;;3.30;;
66145;SDS011;52948;60.040;30.320;2024-03-02T04:34:01;4.22;;;3.08;;
66145;SDS011;52948;60.040;30.320;2024-03-02T04:39:03;5.00;;;3.03;;
66145;SDS011;52948;60.040;30.320;2024-03-02T04:44:10;5.05;;;3.28;;
66145;SDS011;52948;60.040;30.320;2024-03-02T04:49:12;5.32;;;3.47;;
66145;SDS011;52948;60.040;30.320;2024-03-02T04:54:14;5.55;;;3.03;;
66145;SDS011;52948;60.040;30.320;2024-03-02T04:59:19;4.82;;;2.90;;
66145;SDS011;52948;60.040;30.320;2024-03-02T05:04:22;4.70;;;2.92;;
66145;SDS011;52948;60.040;30.320;2024-03-02T05:09:24;4.85;;;3.22;;
66145;SDS011;52948;60.040;30.320;2024-03-02T05:14:29;5.38;;;2.85;;
66145;SDS011;52948;60.040;30.320;2024-03-02T05:19:31;4.18;;;2.97;;
66145;SDS011;52948;60.040;30.320;2024-03-02T05:24:34;4.68;;;3.00;;
66145;SDS011;52948;60.040;30.320;2024-03-02T05:29:40;3.08;;;2.63;;
66145;SDS011;52948;60.040;30.320;2024-03-02T05:34:45;5.18;;;2.60;;
66145;SDS011;52948;60.040;30.320;2024-03-02T05:39:50;3.83;;;2.95;;
66145;SDS011;52948;60.040;30.320;2024-03-02T05:44:52;4.45;;;2.50;;
66145;SDS011;52948;60.040;30.320;2024-03-02T05:49:55;3.63;;;2.10;;
66145;SDS011;52948;60.040;30.320;2024-03-02T05:54:58;3.60;;;2.45;;
66145;SDS011;52948;60.040;30.320;2024-03-02T06:00:00;2.58;;;1.88;;
66145;SDS011;52948;60.040;30.320;2024-03-02T06:05:06;3.92;;;2.40;;
66145;SDS011;52948;60.040;30.320;2024-03-02T06:10:12;3.03;;;2.53;;
66145;SDS011;52948;60.040;30.320;2024-03-02T06:15:17;2.78;;;2.45;;
66145;SDS011;52948;60.040;30.320;2024-03-02T06:20:23;1.75;;;1.60;;
66145;SDS011;52948;60.040;30.320;2024-03-02T06:25:31;2.83;;;2.47;;
66145;SDS011;52948;60.040;30.320;2024-03-02T06:30:34;4.32;;;2.60;;
66145;SDS011;52948;60.040;30.320;2024-03-02T06:35:36;3.15;;;2.25;;
66145;SDS011;52948;60.040;30.320;2024-03-02T06:40:38;3.28;;;1.77;;
66145;SDS011;52948;60.040;30.320;2024-03-02T06:45:41;2.95;;;2.10;;
66145;SDS011;52948;60.040;30.320;2024-03-02T06:50:43;3.53;;;2.42;;
66145;SDS011;52948;60.040;30.320;2024-03-02T06:55:46;2.90;;;2.42;;
66145;SDS011;52948;60.040;30.320;2024-03-02T07:00:48;3.42;;;2.92;;
66145;SDS011;52948;60.040;30.320;2024-03-02T07:05:50;4.05;;;2.47;;
66145;SDS011;52948;60.040;30.320;2024-03-02T07:10:52;4.13;;;2.33;;
66145;SDS011;52948;60.040;30.320;2024-03-02T07:15:54;3.85;;;2.53;;
66145;SDS011;52948;60.040;30.320;2024-03-02T07:21:06;5.32;;;2.70;;
66145;SDS011;52948;60.040;30.320;2024-03-02T07:26:09;3.28;;;2.60;;
66145;SDS011;52948;60.040;30.320;2024-03-02T07:31:12;4.15;;;3.20;;
66145;SDS011;52948;60.040;30.320;2024-03-02T07:36:15;4.18;;;3.10;;
66145;SDS011;52948;60.040;30.320;2024-03-02T07:41:17;3.47;;;2.92;;
66145;SDS011;52948;60.040;30.320;2024-03-02T07:46:19;5.05;;;3.30;;
66145;SDS011;52948;60.040;30.320;2024-03-02T07:51:21;4.68;;;3.35;;
66145;SDS011;52948;60.040;30.320;2024-03-02T07:56:24;3.35;;;2.83;;
66145;SDS011;52948;60.040;30.320;2024-03-02T08:01:29;3.38;;;2.40;;
66145;SDS011;52948;60.040;30.320;2024-03-02T08:06:32;4.45;;;3.10;;
66145;SDS011;52948;60.040;30.320;2024-03-02T08:11:35;4.35;;;3.05;;
66145;SDS011;52948;60.040;30.320;2024-03-02T08:16:37;4.15;;;2.70;;
66145;SDS011;52948;60.040;30.320;2024-03-02T08:21:39;4.57;;;3.17;;
66145;SDS011;52948;60.040;30.320;2024-03-02T08:26:42;4.32;;;2.90;;
66145;SDS011;52948;60.040;30.320;2024-03-02T08:31:44;4.35;;;2.85;;
66145;SDS011;52948;60.040;30.320;2024-03-02T08:36:46;4.70;;;3.55;;
66145;SDS011;52948;60.040;30.320;2024-03-02T08:41:48;6.15;;;2.92;;
66145;SDS011;52948;60.040;30.320;2024-03-02T08:46:50;3.75;;;2.90;;
66145;SDS011;52948;60.040;30.320;2024-03-02T08:51:53;3.05;;;2.60;;
66145;SDS011;52948;60.040;30.320;2024-03-02T08:56:57;4.03;;;2.80;;
66145;SDS011;52948;60.040;30.320;2024-03-02T09:02:00;4.38;;;3.22;;
66145;SDS011;52948;60.040;30.320;2024-03-02T09:07:02;6.22;;;3.30;;
66145;SDS011;52948;60.040;30.320;2024-03-02T09:12:05;3.53;;;3.20;;
66145;SDS011;52948;60.040;30.320;2024-03-02T09:17:09;3.67;;;3.28;;
66145;SDS011;52948;60.040;30.320;2024-03-02T09:22:13;2.83;;;2.40;;
66145;SDS011;52948;60.040;30.320;2024-03-02T09:27:16;3.40;;;3.10;;
66145;SDS011;52948;60.040;30.320;2024-03-02T09:32:18;3.50;;;2.53;;
66145;SDS011;52948;60.040;30.320;2024-03-02T09:37:20;3.00;;;2.33;;
66145;SDS011;52948;60.040;30.320;2024-03-02T09:42:23;3.53;;;2.42;;
66145;SDS011;52948;60.040;30.320;2024-03-02T09:47:26;2.67;;;2.00;;
66145;SDS011;52948;60.040;30.320;2024-03-02T09:52:29;3.10;;;2.38;;
66145;SDS011;52948;60.040;30.320;2024-03-02T09:57:32;4.90;;;3.22;;
66145;SDS011;52948;60.040;30.320;2024-03-02T10:02:35;3.17;;;2.55;;
66145;SDS011;52948;60.040;30.320;2024-03-02T10:07:37;4.35;;;3.33;;
66145;SDS011;52948;60.040;30.320;2024-03-02T10:12:39;3.42;;;2.58;;
66145;SDS011;52948;60.040;30.320;2024-03-02T10:17:42;5.32;;;3.00;;
66145;SDS011;52948;60.040;30.320;2024-03-02T10:22:44;4.25;;;2.95;;
66145;SDS011;52948;60.040;30.320;2024-03-02T10:27:47;4.25;;;3.03;;
66145;SDS011;52948;60.040;30.320;2024-03-02T10:32:53;7.57;;;3.28;;
66145;SDS011;52948;60.040;30.320;2024-03-02T10:37:58;4.38;;;3.20;;
66145;SDS011;52948;60.040;30.320;2024-03-02T10:43:05;5.10;;;3.60;;
66145;SDS011;52948;60.040;30.320;2024-03-02T10:48:07;4.38;;;3.38;;
66145;SDS011;52948;60.040;30.320;2024-03-02T10:53:10;4.07;;;3.20;;
66145;SDS011;52948;60.040;30.320;2024-03-02T10:58:12;2.95;;;2.50;;
66145;SDS011;52948;60.040;30.320;2024-03-02T11:03:17;3.70;;;2.50;;
66145;SDS011;52948;60.040;30.320;2024-03-02T11:08:20;3.97;;;2.83;;
66145;SDS011;52948;60.040;30.320;2024-03-02T11:13:27;3.78;;;2.67;;
66145;SDS011;52948;60.040;30.320;2024-03-02T11:18:33;6.85;;;2.83;;
66145;SDS011;52948;60.040;30.320;2024-03-02T11:23:36;5.35;;;3.72;;
66145;SDS011;52948;60.040;30.320;2024-03-02T11:28:39;4.75;;;3.45;;
66145;SDS011;52948;60.040;30.320;2024-03-02T11:33:41;4.80;;;3.03;;
66145;SDS011;52948;60.040;30.320;2024-03-02T11:38:43;5.18;;;2.90;;
66145;SDS011;52948;60.040;30.320;2024-03-02T11:43:49;4.18;;;2.63;;
66145;SDS011;52948;60.040;30.320;2024-03-02T11:48:51;4.05;;;2.90;;
66145;SDS011;52948;60.040;30.320;2024-03-02T11:53:53;5.55;;;3.67;;
66145;SDS011;52948;60.040;30.320;2024-03-02T11:58:56;4.30;;;3.15;;
66145;SDS011;52948;60.040;30.320;2024-03-02T12:03:59;4.55;;;2.70;;
66145;SDS011;52948;60.040;30.320;2024-03-02T12:09:01;4.65;;;2.70;;
66145;SDS011;52948;60.040;30.320;2024-03-02T12:14:03;3.75;;;2.75;;
66145;SDS011;52948;60.040;30.320;2024-03-02T12:19:06;5.25;;;3.15;;
66145;SDS011;52948;60.040;30.320;2024-03-02T12:24:08;4.97;;;3.60;;
66145;SDS011;52948;60.040;30.320;2024-03-02T12:29:10;4.40;;;3.17;;
66145;SDS011;52948;60.040;30.320;2024-03-02T12:34:15;4.30;;;3.42;;
66145;SDS011;52948;60.040;30.320;2024-03-02T12:39:18;3.72;;;2.80;;
66145;SDS011;52948;60.040;30.320;2024-03-02T12:44:20;5.13;;;3.45;;
66145;SDS011;52948;60.040;30.320;2024-03-02T12:49:23;6.45;;;3.58;;
66145;SDS011;52948;60.040;30.320;2024-03-02T12:54:25;6.72;;;3.70;;
66145;SDS011;52948;60.040;30.320;2024-03-02T12:59:28;4.53;;;3.15;;
66145;SDS011;52948;60.040;30.320;2024-03-02T13:04:30;6.75;;;4.22;;
66145;SDS011;52948;60.040;30.320;2024-03-02T13:09:36;4.93;;;3.70;;
66145;SDS011;52948;60.040;30.320;2024-03-02T13:14:39;4.03;;;3.30;;
66145;SDS011;52948;60.040;30.320;2024-03-02T13:20:02;5.30;;;3.38;;
66145;SDS011;52948;60.040;30.320;2024-03-02T13:25:06;4.15;;;3.10;;
66145;SDS011;52948;60.040;30.320;2024-03-02T13:30:12;5.18;;;3.50;;
66145;SDS011;52948;60.040;30.320;2024-03-02T13:35:15;5.90;;;3.30;;
66145;SDS011;52948;60.040;30.320;2024-03-02T13:40:20;5.22;;;3.35;;
66145;SDS011;52948;60.040;30.320;2024-03-02T13:45:22;4.15;;;3.22;;
66145;SDS011;52948;60.040;30.320;2024-03-02T13:50:25;4.63;;;3.42;;
66145;SDS011;52948;60.040;30.320;2024-03-02T13:55:27;5.00;;;3.17;;
66145;SDS011;52948;60.040;30.320;2024-03-02T14:00:29;2.95;;;2.17;;
66145;SDS011;52948;60.040;30.320;2024-03-02T14:05:32;5.50;;;3.75;;
66145;SDS011;52948;60.040;30.320;2024-03-02T14:10:35;5.90;;;3.47;;
66145;SDS011;52948;60.040;30.320;2024-03-02T14:15:37;4.53;;;3.40;;
66145;SDS011;52948;60.040;30.320;2024-03-02T14:20:43;7.25;;;3.60;;
66145;SDS011;52948;60.040;30.320;2024-03-02T14:25:47;5.97;;;3.85;;
66145;SDS011;52948;60.040;30.320;2024-03-02T14:30:51;6.28;;;4.15;;
66145;SDS011;52948;60.040;30.320;2024-03-02T14:35:53;7.63;;;3.72;;
66145;SDS011;52948;60.040;30.320;2024-03-02T14:40:56;6.60;;;3.92;;
66145;SDS011;52948;60.040;30.320;2024-03-02T14:45:59;4.72;;;3.55;;
66145;SDS011;52948;60.040;30.320;2024-03-02T14:51:02;5.63;;;3.47;;
66145;SDS011;52948;60.040;30.320;2024-03-02T14:56:05;5.07;;;3.35;;
66145;SDS011;52948;60.040;30.320;2024-03-02T15:01:07;3.97;;;3.00;;
66145;SDS011;52948;60.040;30.320;2024-03-02T15:06:11;4.07;;;2.92;;
66145;SDS011;52948;60.040;30.320;2024-03-02T15:11:14;4.97;;;3.42;;
66145;SDS011;52948;60.040;30.320;2024-03-02T15:16:17;4.10;;;3.20;;
66145;SDS011;52948;60.040;30.320;2024-03-02T15:21:20;7.35;;;3.53;;
66145;SDS011;52948;60.040;30.320;2024-03-02T15:26:23;13.75;;;8.98;;
66145;SDS011;52948;60.040;30.320;2024-03-02T15:31:25;4.60;;;2.90;;
66145;SDS011;52948;60.040;30.320;2024-03-02T15:36:27;4.03;;;2.80;;
66145;SDS011;52948;60.040;30.320;2024-03-02T15:41:30;5.57;;;3.13;;
66145;SDS011;52948;60.040;30.320;2024-03-02T15:46:32;5.72;;;3.03;;
66145;SDS011;52948;60.040;30.320;2024-03-02T15:51:34;5.72;;;3.55;;
66145;SDS011;52948;60.040;30.320;2024-03-02T15:56:45;6.50;;;3.63;;
66145;SDS011;52948;60.040;30.320;2024-03-02T16:01:48;6.40;;;3.10;;
66145;SDS011;52948;60.040;30.320;2024-03-02T16:06:50;7.53;;;3.58;;
66145;SDS011;52948;60.040;30.320;2024-03-02T16:11:52;5.60;;;3.50;;
66145;SDS011;52948;60.040;30.320;2024-03-02T16:16:55;5.13;;;3.75;;
66145;SDS011;52948;60.040;30.320;2024-03-02T16:21:57;5.38;;;3.47;;
66145;SDS011;52948;60.040;30.320;2024-03-02T16:26:59;5.22;;;3.67;;
66145;SDS011;52948;60.040;30.320;2024-03-02T16:32:01;8.27;;;5.55;;
66145;SDS011;52948;60.040;30.320;2024-03-02T16:37:05;7.38;;;4.30;;
66145;SDS011;52948;60.040;30.320;2024-03-02T16:42:07;5.78;;;4.00;;
66145;SDS011;52948;60.040;30.320;2024-03-02T16:47:09;5.85;;;4.03;;
66145;SDS011;52948;60.040;30.320;2024-03-02T16:52:12;5.18;;;3.70;;
66145;SDS011;52948;60.040;30.320;2024-03-02T16:57:16;5.68;;;3.97;;
66145;SDS011;52948;60.040;30.320;2024-03-02T17:02:19;6.35;;;3.65;;
66145;SDS011;52948;60.040;30.320;2024-03-02T17:07:21;7.25;;;4.25;;
66145;SDS011;52948;60.040;30.320;2024-03-02T17:12:30;5.70;;;4.03;;
66145;SDS011;52948;60.040;30.320;2024-03-02T17:17:32;5.68;;;3.70;;
66145;SDS011;52948;60.040;30.320;2024-03-02T17:22:35;5.60;;;4.05;;
66145;SDS011;52948;60.040;30.320;2024-03-02T17:27:40;5.28;;;3.90;;
66145;SDS011;52948;60.040;30.320;2024-03-02T17:32:43;7.07;;;4.28;;
66145;SDS011;52948;60.040;30.320;2024-03-02T17:37:46;6.25;;;4.28;;
66145;SDS011;52948;60.040;30.320;2024-03-02T17:42:48;7.32;;;4.22;;
66145;SDS011;52948;60.040;30.320;2024-03-02T17:47:51;7.15;;;4.85;;
66145;SDS011;52948;60.040;30.320;2024-03-02T17:52:53;8.00;;;4.80;;
66145;SDS011;52948;60.040;30.320;2024-03-02T17:58:01;4.97;;;3.90;;
66145;SDS011;52948;60.040;30.320;2024-03-02T18:03:07;6.47;;;4.25;;
66145;SDS011;52948;60.040;30.320;2024-03-02T18:08:09;7.30;;;5.28;;
66145;SDS011;52948;60.040;30.320;2024-03-02T18:13:12;6.72;;;5.45;;
66145;SDS011;52948;60.040;30.320;2024-03-02T18:18:16;5.90;;;3.47;;
66145;SDS011;52948;60.040;30.320;2024-03-02T18:23:18;6.43;;;4.03;;
66145;SDS011;52948;60.040;30.320;2024-03-02T18:28:21;7.63;;;4.28;;
66145;SDS011;52948;60.040;30.320;2024-03-02T18:33:24;4.35;;;3.13;;
66145;SDS011;52948;60.040;30.320;2024-03-02T18:38:29;6.95;;;4.20;;
66145;SDS011;52948;60.040;30.320;2024-03-02T18:43:34;5.47;;;3.30;;
66145;SDS011;52948;60.040;30.320;2024-03-02T18:48:40;7.88;;;5.18;;
66145;SDS011;52948;60.040;30.320;2024-03-02T18:53:43;6.35;;;4.45;;
66145;SDS011;52948;60.040;30.320;2024-03-02T18:58:46;6.88;;;4.55;;
66145;SDS011;52948;60.040;30.320;2024-03-02T19:03:49;5.53;;;4.05;;
66145;SDS011;52948;60.040;30.320;2024-03-02T19:08:53;6.38;;;3.95;;
66145;SDS011;52948;60.040;30.320;2024-03-02T19:13:56;6.93;;;4.22;;
66145;SDS011;52948;60.040;30.320;2024-03-02T19:19:00;8.43;;;4.65;;
66145;SDS011;52948;60.040;30.320;2024-03-02T19:24:02;5.18;;;3.83;;
66145;SDS011;52948;60.040;30.320;2024-03-02T19:29:04;6.47;;;3.38;;
66145;SDS011;52948;60.040;30.320;2024-03-02T19:34:07;4.38;;;3.80;;
66145;SDS011;52948;60.040;30.320;2024-03-02T19:39:16;5.22;;;3.30;;
66145;SDS011;52948;60.040;30.320;2024-03-02T19:44:25;6.82;;;3.60;;
66145;SDS011;52948;60.040;30.320;2024-03-02T19:49:37;5.90;;;3.40;;
66145;SDS011;52948;60.040;30.320;2024-03-02T19:54:39;4.57;;;3.10;;
66145;SDS011;52948;60.040;30.320;2024-03-02T19:59:42;5.15;;;3.10;;
66145;SDS011;52948;60.040;30.320;2024-03-02T20:04:44;4.45;;;3.60;;
66145;SDS011;52948;60.040;30.320;2024-03-02T20:09:48;4.95;;;3.50;;
66145;SDS011;52948;60.040;30.320;2024-03-02T20:14:51;7.53;;;3.92;;
66145;SDS011;52948;60.040;30.320;2024-03-02T20:19:53;4.78;;;3.97;;
66145;SDS011;52948;60.040;30.320;2024-03-02T20:24:56;8.55;;;4.72;;
66145;SDS011;52948;60.040;30.320;2024-03-02T20:29:58;9.55;;;3.85;;
66145;SDS011;52948;60.040;30.320;2024-03-02T20:35:01;7.72;;;4.47;;
66145;SDS011;52948;60.040;30.320;2024-03-02T20:40:03;7.47;;;4.85;;
66145;SDS011;52948;60.040;30.320;2024-03-02T20:45:06;6.53;;;4.47;;
66145;SDS011;52948;60.040;30.320;2024-03-02T20:50:09;7.57;;;3.95;;
66145;SDS011;52948;60.040;30.320;2024-03-02T20:55:11;6.72;;;4.63;;
66145;SDS011;52948;60.040;30.320;2024-03-02T21:00:13;6.70;;;4.43;;
66145;SDS011;52948;60.040;30.320;2024-03-02T21:05:15;7.18;;;4.50;;
66145;SDS011;52948;60.040;30.320;2024-03-02T21:10:18;5.80;;;3.78;;
66145;SDS011;52948;60.040;30.320;2024-03-02T21:15:21;4.93;;;3.65;;
66145;SDS011;52948;60.040;30.320;2024-03-02T21:20:25;5.13;;;3.90;;
66145;SDS011;52948;60.040;30.320;2024-03-02T21:25:28;5.35;;;4.18;;
66145;SDS011;52948;60.040;30.320;2024-03-02T21:30:35;7.23;;;4.33;;
66145;SDS011;52948;60.040;30.320;2024-03-02T21:35:38;6.13;;;4.07;;
66145;SDS011;52948;60.040;30.320;2024-03-02T21:40:40;6.93;;;4.22;;
66145;SDS011;52948;60.040;30.320;2024-03-02T21:45:43;6.60;;;4.05;;
66145;SDS011;52948;60.040;30.320;2024-03-02T21:50:45;5.97;;;4.15;;
66145;SDS011;52948;60.040;30.320;2024-03-02T21:55:48;6.32;;;3.90;;
66145;SDS011;52948;60.040;30.320;2024-03-02T22:00:51;6.35;;;4.30;;
66145;SDS011;52948;60.040;30.320;2024-03-02T22:05:54;6.07;;;4.10;;
66145;SDS011;52948;60.040;30.320;2024-03-02T22:10:56;6.90;;;4.13;;
66145;SDS011;52948;60.040;30.320;2024-03-02T22:15:59;8.38;;;3.72;;
66145;SDS011;52948;60.040;30.320;2024-03-02T22:21:02;6.47;;;4.22;;
66145;SDS011;52948;60.040;30.320;2024-03-02T22:26:05;7.40;;;4.05;;
66145;SDS011;52948;60.040;30.320;2024-03-02T22:31:07;5.95;;;3.97;;
66145;SDS011;52948;60.040;30.320;2024-03-02T22:36:10;8.27;;;4.88;;
66145;SDS011;52948;60.040;30.320;2024-03-02T22:41:13;5.85;;;3.72;;
66145;SDS011;52948;60.040;30.320;2024-03-02T22:46:15;6.50;;;3.80;;
66145;SDS011;52948;60.040;30.320;2024-03-02T22:51:21;4.88;;;3.60;;
66145;SDS011;52948;60.040;30.320;2024-03-02T22:56:23;7.55;;;4.03;;
66145;SDS011;52948;60.040;30.320;2024-03-02T23:01:26;6.18;;;3.92;;
66145;SDS011;52948;60.040;30.320;2024-03-02T23:06:28;6.40;;;3.70;;
66145;SDS011;52948;60.040;30.320;2024-03-02T23:11:31;5.38;;;3.55;;
66145;SDS011;52948;60.040;30.320;2024-03-02T23:16:33;5.82;;;3.55;;
66145;SDS011;52948;60.040;30.320;2024-03-02T23:21:39;5.45;;;3.65;;
66145;SDS011;52948;60.040;30.320;2024-03-02T23:26:42;6.57;;;4.07;;
66145;SDS011;52948;60.040;30.320;2024-03-02T23:31:44;6.82;;;3.85;;
66145;SDS011;52948;60.040;30.320;2024-03-02T23:36:47;6.30;;;3.78;;
66145;SDS011;52948;60.040;30.320;2024-03-02T23:41:49;6.90;;;4.15;;
66145;SDS011;52948;60.040;30.320;2024-03-02T23:46:51;6.38;;;3.85;;
66145;SDS011;52948;60.040;30.320;2024-03-02T23:51:53;7.45;;;4.35;;
66145;SDS011;52948;60.040;30.320;2024-03-02T23:56:56;5.78;;;4.22;;
